Aeroporto :
LOGIN :

Iscrizione | Disclaimer

   EN    FR    IT 

 










Sommario :    VFR   VFR Marginale   IFR   IFR Intensivo   IFR Molto Intensivo
Visibilità : 
Base nubi : 
>= 8 km
>= 3000ft
5 / 8 km
1000 / 3000 ft
1500m / 5 km
500 / 1000 ft
800 / 1500m
200 / 500 ft
< 800m
< 200 ft
Simboli :   Temporali  Nebbia  Neve Forte  Precipitazioni Forti  Vento > 20 kt
SIGMETs :   Varie  Temporali  Ghiacco  Turbolenza  Onda orograficha  Ceneri Vulcaniche






- Altitudine del aeroporto : 584 ft


LFPV - Villacoublay Vélizy

ULTIMO METAR :
  • 190200Z AUTO 34003KT 9999 SCT028 02/00 Q1034

METARs OBSOLETI :
  • 190130Z AUTO VRB02KT CAVOK 02/00 Q1034
  • 190100Z AUTO 01003KT 330V040 9999 FEW020 02/00 Q1033 NOSIG
  • 190030Z AUTO 02006KT CAVOK 02/01 Q1033 NOSIG
  • 190000Z AUTO 01006KT 340V040 CAVOK 02/01 Q1033 NOSIG
  • 182330Z AUTO 01006KT 340V040 CAVOK 03/01 Q1032 NOSIG

TAF TAF LFPV
Valido dal 18 a 21 ore il 19 a 21 ore UTC


182000Z 1821/1921 02005KT CAVOK
PROB30 1903/1909 3000 BR
PROB40
TEMPO 1912/1916 4500 -SHRA BKN015TCU



MetMap, La meteo Aeronautica in un colpo d'occhio ! - Copyright ORBIFLY Dicembre 2007 - Disclaimer

ORBIFLY MET'MAP TEAM :

Programmazione e sviluppo : Alexandra Zaïnal
Concezione : Baudouin d'Aumeries
Aiuto per la programmazione : Marc-Olivier Méhu
Supporto tecnico e logistico : Manuel Goepfert
Aiuto per la traduzione : Arnaldo La Scala

Contatto : metmap@orbifly.com




FONTI E CREDITI :

   NOAA